Time;durP1;ratioP1;P1;durP2;ratioP2;P2;SDS_P1;SDS_P2;PMS_P1;PMS_P2;Temp;Humidity;BMP_temperature;BMP_pressure;BME280_temperature;BME280_humidity;BME280_pressure;Samples;Min_cycle;Max_cycle;Signal;HPM_P1;HPM_P2
2022/04/11 00:01:22;;;;;;;15.07;3.78;;;;;;;6.89;100.00;99986.50;5049259;28;20033;-75
2022/04/11 00:03:51;;;;;;;7.32;3.03;;;;;;;6.88;100.00;99995.53;5061777;28;20024;-77
2022/04/11 00:06:16;;;;;;;7.55;3.00;;;;;;;6.81;100.00;99998.03;5056153;28;20037;-77
2022/04/11 00:08:42;;;;;;;9.98;3.35;;;;;;;6.72;100.00;99984.84;5043188;28;20394;-76
2022/04/11 00:11:07;;;;;;;7.55;3.05;;;;;;;6.67;100.00;99971.16;5033851;28;20428;-79
2022/04/11 00:13:33;;;;;;;11.23;2.83;;;;;;;6.69;100.00;99994.03;5050711;28;20040;-77
2022/04/11 00:15:59;;;;;;;8.93;3.20;;;;;;;6.69;100.00;99996.72;5065814;28;20070;-77
2022/04/11 00:18:25;;;;;;;7.90;3.47;;;;;;;6.66;100.00;99989.03;5033202;28;20040;-78
2022/04/11 00:20:50;;;;;;;7.15;2.70;;;;;;;6.72;100.00;99977.69;5070981;28;20379;-77
2022/04/11 00:23:16;;;;;;;6.90;2.78;;;;;;;6.80;100.00;99979.50;5047236;28;20068;-78
2022/04/11 00:25:42;;;;;;;3.22;1.95;;;;;;;6.71;100.00;99970.66;5048673;28;20040;-78
2022/04/11 00:28:08;;;;;;;5.03;2.10;;;;;;;6.71;100.00;99973.34;5032883;28;20037;-77
2022/04/11 00:30:34;;;;;;;6.25;3.30;;;;;;;6.69;100.00;99963.81;5033139;28;20136;-78
2022/04/11 00:32:59;;;;;;;13.25;3.30;;;;;;;6.62;100.00;99957.53;5029615;28;20033;-77
2022/04/11 00:35:25;;;;;;;7.10;2.75;;;;;;;6.70;100.00;99955.66;5057494;28;20035;-78
2022/04/11 00:37:53;;;;;;;6.38;3.05;;;;;;;6.92;100.00;99962.09;5065718;28;20039;-78
2022/04/11 00:40:19;;;;;;;7.22;3.08;;;;;;;6.89;100.00;99943.75;5048894;28;20044;-77
2022/04/11 00:42:48;;;;;;;4.28;1.73;;;;;;;6.93;99.88;99945.09;5044980;28;20033;-77
2022/04/11 00:45:14;;;;;;;6.05;2.78;;;;;;;6.86;100.00;99953.97;5043020;28;20491;-78
2022/04/11 00:47:40;;;;;;;10.48;2.60;;;;;;;6.85;100.00;99949.59;5066201;28;20115;-77
2022/04/11 00:50:08;;;;;;;10.57;2.92;;;;;;;6.89;100.00;99935.72;5030729;28;20382;-77
2022/04/11 00:52:39;;;;;;;12.88;2.63;;;;;;;6.87;100.00;99936.91;5054276;28;20056;-77
2022/04/11 00:55:07;;;;;;;9.93;3.05;;;;;;;6.97;97.94;99946.38;5046640;28;20084;-78
2022/04/11 00:57:33;;;;;;;9.55;2.72;;;;;;;7.07;96.88;99932.00;5080130;28;20028;-77
2022/04/11 00:59:59;;;;;;;6.63;2.75;;;;;;;7.15;95.86;99938.13;5029863;28;20033;-77
2022/04/11 01:02:26;;;;;;;6.22;2.67;;;;;;;7.32;93.95;99928.19;5059070;28;20064;-77
2022/04/11 01:04:51;;;;;;;9.13;2.45;;;;;;;7.33;93.96;99924.53;5046586;28;20032;-77
2022/04/11 01:07:19;;;;;;;10.02;3.85;;;;;;;7.35;93.25;99901.09;5054935;28;20032;-79
2022/04/11 01:09:44;;;;;;;11.13;2.53;;;;;;;7.44;92.50;99894.69;5060416;28;20123;-78
2022/04/11 01:12:15;;;;;;;9.27;2.72;;;;;;;7.28;92.62;99849.34;5031909;28;20100;-77
2022/04/11 01:14:41;;;;;;;7.60;3.08;;;;;;;7.41;92.17;99868.31;5060843;28;20119;-77
2022/04/11 01:17:08;;;;;;;7.65;3.10;;;;;;;7.42;92.29;99875.31;5060606;28;20432;-79
2022/04/11 01:19:34;;;;;;;8.07;2.40;;;;;;;7.40;92.92;99888.03;5064525;28;20032;-78
2022/04/11 01:22:00;;;;;;;5.72;2.97;;;;;;;7.40;92.54;99912.09;5051544;28;21828;-77
2022/04/11 01:24:26;;;;;;;4.63;2.45;;;;;;;7.29;92.37;99896.44;5067660;28;20044;-78
2022/04/11 01:26:51;;;;;;;4.80;2.42;;;;;;;7.28;92.86;99921.53;5082830;28;20495;-78
2022/04/11 01:29:18;;;;;;;60.28;5.10;;;;;;;7.43;92.41;99933.13;5063234;28;20041;-78
2022/04/11 01:31:43;;;;;;;9.75;2.75;;;;;;;7.49;92.02;99913.72;5064366;28;20032;-77
2022/04/11 01:34:09;;;;;;;6.78;2.75;;;;;;;7.56;91.80;99905.00;5052721;28;20063;-78
2022/04/11 01:36:35;;;;;;;11.88;3.40;;;;;;;7.69;91.28;99900.72;5043298;28;20542;-78
2022/04/11 01:39:01;;;;;;;11.50;3.00;;;;;;;7.80;91.01;99878.03;5062884;28;20052;-78
2022/04/11 01:41:26;;;;;;;12.18;3.35;;;;;;;7.82;90.45;99861.81;5068428;28;20036;-77
2022/04/11 01:43:52;;;;;;;9.30;2.88;;;;;;;7.79;90.63;99854.97;5063819;28;20489;-78
2022/04/11 01:46:18;;;;;;;8.95;3.08;;;;;;;7.85;89.93;99854.25;5031789;28;20025;-78
2022/04/11 01:48:44;;;;;;;7.90;3.10;;;;;;;7.89;90.09;99857.41;5069436;28;20040;-77
2022/04/11 01:51:09;;;;;;;7.00;3.03;;;;;;;7.88;90.02;99851.22;5064385;28;20128;-78
2022/04/11 01:53:35;;;;;;;6.95;2.72;;;;;;;7.96;89.82;99846.81;5065982;28;20066;-77
2022/04/11 01:56:00;;;;;;;15.00;3.00;;;;;;;7.88;89.80;99819.09;5060046;28;20402;-77
2022/04/11 01:58:26;;;;;;;5.95;2.22;;;;;;;8.05;88.67;99829.69;5068238;28;20041;-78
2022/04/11 02:00:52;;;;;;;6.88;3.35;;;;;;;7.96;88.91;99836.09;5047847;28;20091;-78
2022/04/11 02:03:17;;;;;;;8.55;2.97;;;;;;;7.81;89.81;99820.03;5061428;28;20044;-77
2022/04/11 02:05:43;;;;;;;15.57;3.67;;;;;;;7.69;90.56;99808.91;5063518;28;20958;-77
2022/04/11 02:08:10;;;;;;;7.85;3.13;;;;;;;7.63;90.44;99812.31;5049928;28;20577;-77
2022/04/11 02:10:37;;;;;;;11.40;3.65;;;;;;;7.54;90.98;99786.63;5049299;28;20048;-78
2022/04/11 02:13:03;;;;;;;6.03;2.53;;;;;;;7.59;91.37;99773.53;5069518;28;20040;-77
2022/04/11 02:15:29;;;;;;;6.60;2.53;;;;;;;7.56;90.97;99763.22;5049524;28;20076;-76
2022/04/11 02:17:55;;;;;;;5.15;1.92;;;;;;;7.54;90.54;99779.44;5031266;28;20366;-77
2022/04/11 02:20:21;;;;;;;10.63;3.65;;;;;;;7.48;90.84;99791.69;5078197;28;20043;-77
2022/04/11 02:22:47;;;;;;;7.07;3.25;;;;;;;7.47;91.46;99802.56;5031955;28;20125;-77
2022/04/11 02:25:13;;;;;;;6.68;2.75;;;;;;;7.53;91.35;99801.03;5065371;28;20082;-77
2022/04/11 02:27:39;;;;;;;6.63;3.08;;;;;;;7.63;90.58;99790.91;5063850;28;20029;-77
2022/04/11 02:30:05;;;;;;;10.13;2.83;;;;;;;7.73;90.10;99786.13;5066033;28;20029;-77
2022/04/11 02:32:32;;;;;;;8.45;3.08;;;;;;;7.81;89.63;99774.53;5050176;28;20036;-77
2022/04/11 02:34:58;;;;;;;13.32;3.22;;;;;;;7.80;89.41;99773.69;5042524;28;20051;-77
2022/04/11 02:37:23;;;;;;;7.10;2.58;;;;;;;7.81;89.79;99783.38;5051840;28;20032;-77
2022/04/11 02:39:49;;;;;;;15.07;5.07;;;;;;;7.74;90.54;99771.75;5058049;28;20028;-76
2022/04/11 02:42:22;;;;;;;7.13;4.18;;;;;;;7.72;89.87;99755.03;5029241;28;20413;-76
2022/04/11 02:44:48;;;;;;;9.77;3.33;;;;;;;7.79;89.62;99747.94;5063155;28;20025;-77
2022/04/11 02:47:13;;;;;;;9.32;2.60;;;;;;;8.00;88.93;99757.09;5063793;28;20028;-76
2022/04/11 02:49:39;;;;;;;6.82;2.90;;;;;;;8.14;87.88;99764.31;5064647;28;20024;-77
2022/04/11 02:52:05;;;;;;;11.45;2.90;;;;;;;8.27;86.60;99774.38;5048118;28;20028;-75
2022/04/11 02:54:30;;;;;;;10.93;2.53;;;;;;;8.30;86.61;99785.53;5061669;28;20044;-77
2022/04/11 02:56:56;;;;;;;7.18;2.60;;;;;;;8.35;86.55;99779.63;5064351;28;20153;-77
2022/04/11 02:59:22;;;;;;;11.07;2.92;;;;;;;8.40;85.85;99777.25;5034192;28;20032;-77
2022/04/11 03:01:48;;;;;;;10.40;3.13;;;;;;;8.42;86.09;99796.66;5043405;28;20047;-76
2022/04/11 03:04:16;;;;;;;9.88;2.92;;;;;;;8.44;85.41;99778.56;5046414;28;20032;-77
2022/04/11 03:06:41;;;;;;;7.72;3.25;;;;;;;8.37;85.52;99782.97;5060381;28;20036;-76
2022/04/11 03:09:08;;;;;;;7.93;2.97;;;;;;;8.33;86.06;99787.84;5029420;28;20036;-78
2022/04/11 03:11:34;;;;;;;5.95;3.20;;;;;;;8.23;86.55;99790.00;5060121;28;20124;-77
2022/04/11 03:14:00;;;;;;;6.32;2.30;;;;;;;8.19;86.51;99769.94;5041318;28;20148;-76
2022/04/11 03:16:29;;;;;;;4.53;2.30;;;;;;;8.15;86.85;99763.31;5065507;28;20099;-77
2022/04/11 03:18:54;;;;;;;9.27;2.88;;;;;;;8.09;86.85;99750.63;5059162;28;20029;-77
2022/04/11 03:21:20;;;;;;;10.85;2.95;;;;;;;8.11;87.13;99745.94;5063321;28;20044;-77
2022/04/11 03:23:46;;;;;;;6.95;2.55;;;;;;;8.23;86.88;99736.44;5028712;28;20036;-77
2022/04/11 03:26:12;;;;;;;8.20;2.70;;;;;;;8.21;85.82;99716.22;5030138;28;20382;-77
2022/04/11 03:28:37;;;;;;;6.22;2.75;;;;;;;8.27;85.72;99697.53;5055084;28;20048;-76
2022/04/11 03:31:03;;;;;;;6.13;2.60;;;;;;;8.36;85.64;99701.78;5031180;28;20032;-77
2022/04/11 03:33:29;;;;;;;8.73;3.25;;;;;;;8.29;85.40;99683.97;5079107;28;20029;-77
2022/04/11 03:35:55;;;;;;;10.73;3.33;;;;;;;8.22;86.01;99686.53;5031200;28;20028;-77
2022/04/11 03:38:26;;;;;;;4.82;2.40;;;;;;;8.14;86.24;99694.69;5037114;28;20094;-76
2022/04/11 03:40:51;;;;;;;13.93;3.15;;;;;;;8.24;86.02;99695.22;5044587;28;20032;-78
2022/04/11 03:43:17;;;;;;;5.97;2.42;;;;;;;8.32;85.78;99710.38;5065477;28;20082;-76
2022/04/11 03:45:43;;;;;;;9.90;3.17;;;;;;;8.28;85.88;99712.59;5029534;28;20480;-77
2022/04/11 03:48:08;;;;;;;5.15;2.28;;;;;;;8.35;86.07;99726.06;5028488;28;20136;-76
2022/04/11 03:50:34;;;;;;;8.93;3.30;;;;;;;8.43;85.35;99720.63;5066567;28;20378;-76
2022/04/11 03:52:59;;;;;;;9.23;3.00;;;;;;;8.45;84.93;99707.06;5031166;28;20032;-76
2022/04/11 03:55:25;;;;;;;11.45;2.85;;;;;;;8.35;85.26;99699.28;5065496;28;20029;-77
2022/04/11 03:57:53;;;;;;;8.65;2.85;;;;;;;8.26;85.89;99711.13;5031005;28;20557;-77
2022/04/11 04:00:19;;;;;;;8.95;2.78;;;;;;;8.28;85.65;99696.53;5073511;28;20474;-77
2022/04/11 04:02:44;;;;;;;9.45;2.70;;;;;;;8.23;85.58;99693.59;5063920;28;20041;-77
2022/04/11 04:05:14;;;;;;;7.15;2.63;;;;;;;8.20;85.63;99701.13;5041554;28;20412;-76
2022/04/11 04:07:39;;;;;;;9.57;2.72;;;;;;;8.25;85.03;99709.44;5049460;28;20047;-77
2022/04/11 04:10:06;;;;;;;5.72;1.83;;;;;;;8.17;84.92;99688.13;5048716;28;20025;-76
2022/04/11 04:12:31;;;;;;;6.43;2.45;;;;;;;8.14;85.56;99714.25;5041562;28;20036;-77
2022/04/11 04:14:57;;;;;;;9.02;2.72;;;;;;;8.17;85.14;99696.16;5059558;28;20064;-77
2022/04/11 04:17:23;;;;;;;13.52;3.03;;;;;;;8.03;85.92;99669.22;5078813;28;20067;-76
2022/04/11 04:19:48;;;;;;;9.77;3.10;;;;;;;8.19;85.37;99673.53;5033761;28;20036;-77
2022/04/11 04:22:17;;;;;;;10.57;2.92;;;;;;;8.22;85.34;99675.84;5045793;28;20037;-77
2022/04/11 04:24:43;;;;;;;8.60;3.17;;;;;;;8.22;85.29;99665.13;5046410;28;20073;-77
2022/04/11 04:27:11;;;;;;;8.27;2.45;;;;;;;8.24;85.05;99660.41;5060192;28;20064;-77
2022/04/11 04:29:37;;;;;;;9.32;2.35;;;;;;;8.36;84.94;99644.69;5061330;28;20112;-77
2022/04/11 04:32:03;;;;;;;11.15;3.03;;;;;;;8.33;84.81;99637.03;5034137;28;20028;-77
2022/04/11 04:34:31;;;;;;;9.32;2.53;;;;;;;8.36;84.60;99628.59;5051458;28;20033;-77
2022/04/11 04:36:58;;;;;;;5.55;1.88;;;;;;;8.36;84.09;99616.06;5042615;28;20116;-76
2022/04/11 04:39:26;;;;;;;6.13;2.80;;;;;;;8.45;83.86;99615.97;5059303;28;20036;-77
2022/04/11 04:41:52;;;;;;;7.93;2.50;;;;;;;8.47;83.44;99614.78;5044345;28;20036;-77
2022/04/11 04:44:18;;;;;;;6.78;2.90;;;;;;;8.46;83.57;99610.41;5040408;28;20032;-77
2022/04/11 04:46:43;;;;;;;8.77;3.25;;;;;;;8.46;83.37;99604.22;5065105;28;20055;-77
2022/04/11 04:49:09;;;;;;;9.35;2.35;;;;;;;8.43;84.02;99600.09;5035358;28;20044;-77
2022/04/11 04:51:34;;;;;;;3.75;2.10;;;;;;;8.53;82.56;99578.34;5064986;28;20049;-77
2022/04/11 04:54:00;;;;;;;8.00;3.08;;;;;;;8.45;82.91;99584.66;5051213;28;20043;-77
2022/04/11 04:56:28;;;;;;;8.68;2.55;;;;;;;8.33;83.22;99588.81;5060546;28;20056;-78
2022/04/11 04:58:54;;;;;;;7.85;2.63;;;;;;;8.22;83.91;99574.06;5070867;28;20032;-76
2022/04/11 05:01:20;;;;;;;12.25;3.00;;;;;;;8.14;84.17;99563.50;5037013;28;20093;-77
2022/04/11 05:03:45;;;;;;;9.80;2.92;;;;;;;8.20;85.08;99561.91;5049114;28;20036;-77
2022/04/11 05:06:11;;;;;;;7.20;2.45;;;;;;;8.11;84.22;99561.19;5049317;28;20570;-78
2022/04/11 05:08:39;;;;;;;4.43;1.73;;;;;;;8.12;84.48;99557.50;5066238;28;20040;-77
2022/04/11 05:11:05;;;;;;;3.90;2.63;;;;;;;8.03;85.29;99556.78;5061438;28;20084;-77
2022/04/11 05:13:30;;;;;;;6.25;2.30;;;;;;;8.02;85.18;99560.50;5065289;28;20475;-78
2022/04/11 05:15:56;;;;;;;8.00;2.03;;;;;;;7.97;85.72;99559.41;5034771;28;20531;-78
2022/04/11 05:18:21;;;;;;;11.23;2.80;;;;;;;7.90;85.85;99545.91;5048304;28;20390;-76
2022/04/11 05:20:47;;;;;;;10.48;2.75;;;;;;;7.87;85.98;99544.44;5072708;28;21031;-78
2022/04/11 05:23:18;;;;;;;8.50;2.88;;;;;;;7.71;86.65;99521.41;5047181;28;20028;-78
2022/04/11 05:25:44;;;;;;;7.78;2.58;;;;;;;7.83;86.37;99550.34;5069052;28;20472;-78
2022/04/11 05:28:12;;;;;;;7.40;1.90;;;;;;;7.71;86.75;99547.34;5066638;28;20048;-76
2022/04/11 05:30:38;;;;;;;11.38;2.95;;;;;;;7.60;88.20;99562.03;5036100;28;20036;-76
2022/04/11 05:33:03;;;;;;;7.07;2.55;;;;;;;7.50;88.47;99540.09;5063970;28;20029;-78
2022/04/11 05:35:29;;;;;;;9.85;2.90;;;;;;;7.25;88.74;99507.44;5060406;28;20535;-77
2022/04/11 05:37:55;;;;;;;8.88;3.08;;;;;;;7.42;89.60;99546.34;5064489;28;20115;-77
2022/04/11 05:40:21;;;;;;;10.75;3.40;;;;;;;7.38;89.79;99546.91;5077792;28;20488;-78
2022/04/11 05:42:56;;;;;;;11.15;2.95;;;;;;;7.22;89.78;99510.47;5051837;28;20040;-77
2022/04/11 05:45:24;;;;;;;16.20;3.90;;;;;;;7.27;89.66;99527.63;5014592;28;20117;-79
2022/04/11 05:47:49;;;;;;;9.73;3.10;;;;;;;7.29;90.50;99537.31;5049056;28;20500;-77
2022/04/11 05:50:15;;;;;;;7.50;2.53;;;;;;;7.12;90.74;99504.56;5033456;28;20032;-77
2022/04/11 05:52:41;;;;;;;15.10;3.28;;;;;;;7.18;90.01;99511.88;5060297;28;20070;-78
2022/04/11 05:55:12;;;;;;;8.60;3.30;;;;;;;7.25;90.99;99539.53;5057155;28;20024;-77
2022/04/11 05:57:38;;;;;;;8.23;2.97;;;;;;;7.27;90.44;99516.94;5039228;28;20036;-78
2022/04/11 06:00:04;;;;;;;6.97;2.65;;;;;;;7.29;89.87;99506.06;5056522;28;20040;-78
2022/04/11 06:02:29;;;;;;;9.57;2.67;;;;;;;7.40;89.43;99507.44;5040455;28;20039;-77
2022/04/11 06:04:55;;;;;;;6.80;3.28;;;;;;;7.37;89.76;99514.00;5055382;28;20041;-79
2022/04/11 06:07:23;;;;;;;10.43;2.75;;;;;;;7.36;90.06;99507.00;5059398;28;20546;-77
2022/04/11 06:09:49;;;;;;;11.60;2.97;;;;;;;7.38;89.50;99507.66;5063852;28;20037;-77
2022/04/11 06:12:14;;;;;;;6.40;2.92;;;;;;;7.46;89.05;99512.03;5053318;28;20031;-76
2022/04/11 06:14:40;;;;;;;7.05;2.50;;;;;;;7.48;88.67;99532.22;5047963;28;21211;-77
2022/04/11 06:17:05;;;;;;;6.65;2.20;;;;;;;7.47;88.63;99524.41;5048179;28;20032;-77
2022/04/11 06:19:31;;;;;;;8.43;3.15;;;;;;;7.47;88.32;99505.69;5052018;28;20051;-77
2022/04/11 06:21:57;;;;;;;8.68;2.75;;;;;;;7.47;88.41;99495.81;5051785;28;20032;-77
2022/04/11 06:24:22;;;;;;;10.07;3.13;;;;;;;7.53;88.07;99493.41;5033865;28;20123;-76
2022/04/11 06:26:48;;;;;;;8.77;2.80;;;;;;;7.49;87.31;99475.06;5074602;28;20115;-76
2022/04/11 06:29:14;;;;;;;11.07;3.10;;;;;;;7.49;87.93;99469.72;5056379;28;20037;-76
2022/04/11 06:31:39;;;;;;;9.98;3.15;;;;;;;7.43;88.49;99475.78;5029853;28;20047;-77
2022/04/11 06:34:05;;;;;;;7.10;2.80;;;;;;;7.46;88.48;99482.63;5059197;28;20060;-76
2022/04/11 06:36:36;;;;;;;10.93;3.25;;;;;;;7.49;88.42;99468.91;5045962;28;20115;-76
2022/04/11 06:39:05;;;;;;;8.43;3.13;;;;;;;7.45;87.74;99452.38;5075987;28;20037;-77
2022/04/11 06:41:30;;;;;;;12.65;3.40;;;;;;;7.55;87.59;99459.28;5058459;28;20478;-75
2022/04/11 06:43:56;;;;;;;5.72;2.55;;;;;;;7.63;87.65;99465.34;5044113;28;20041;-77
2022/04/11 06:46:21;;;;;;;14.35;3.33;;;;;;;7.67;87.09;99458.63;5039152;28;20481;-78
2022/04/11 06:48:47;;;;;;;10.48;3.35;;;;;;;7.84;85.52;99467.22;5031396;28;20044;-77
2022/04/11 06:51:13;;;;;;;9.65;2.95;;;;;;;7.79;86.23;99450.91;5056907;28;20028;-78
2022/04/11 06:53:38;;;;;;;4.93;2.55;;;;;;;7.99;85.61;99464.50;5061990;28;20425;-78
2022/04/11 06:56:04;;;;;;;11.15;2.90;;;;;;;7.93;84.83;99447.34;5060900;28;20033;-76
2022/04/11 06:58:30;;;;;;;11.32;3.10;;;;;;;8.14;84.09;99467.91;5041839;28;20115;-78
2022/04/11 07:00:59;;;;;;;8.65;2.75;;;;;;;8.18;83.61;99456.81;5059062;28;20082;-76
2022/04/11 07:03:27;;;;;;;5.07;2.35;;;;;;;8.17;83.09;99437.25;5065456;28;20082;-76
2022/04/11 07:05:53;;;;;;;9.63;3.03;;;;;;;8.27;82.89;99448.47;5078303;28;20028;-76
2022/04/11 07:08:19;;;;;;;12.73;2.97;;;;;;;8.24;82.23;99438.16;5044989;28;20083;-76
2022/04/11 07:10:45;;;;;;;19.55;4.38;;;;;;;8.47;81.52;99453.22;5044215;28;20040;-76
2022/04/11 07:13:10;;;;;;;9.77;2.88;;;;;;;8.49;81.33;99432.41;5050084;28;20033;-76
2022/04/11 07:15:36;;;;;;;7.65;2.90;;;;;;;8.52;80.74;99416.78;5079703;28;20024;-77
2022/04/11 07:18:05;;;;;;;9.88;3.00;;;;;;;8.80;79.96;99437.34;5052562;28;20040;-77
2022/04/11 07:20:35;;;;;;;10.02;2.28;;;;;;;8.84;79.14;99425.22;5062913;28;20037;-76
2022/04/11 07:23:01;;;;;;;9.02;2.60;;;;;;;8.78;79.49;99416.09;5060105;28;20106;-76
2022/04/11 07:25:28;;;;;;;6.18;3.28;;;;;;;8.97;79.58;99411.06;5062116;28;20474;-76
2022/04/11 07:27:55;;;;;;;10.15;3.45;;;;;;;8.97;78.57;99369.00;5060961;28;20040;-77
2022/04/11 07:30:21;;;;;;;5.57;2.55;;;;;;;9.05;79.17;99389.47;5062184;28;20025;-76
2022/04/11 07:32:47;;;;;;;10.52;2.83;;;;;;;8.92;79.35;99430.44;5045068;28;20043;-76
2022/04/11 07:35:13;;;;;;;8.25;2.65;;;;;;;8.95;79.22;99458.69;5035084;28;20031;-77
2022/04/11 07:37:38;;;;;;;6.68;2.50;;;;;;;9.01;78.66;99464.09;5031772;28;20136;-78
2022/04/11 07:40:04;;;;;;;7.28;3.42;;;;;;;9.07;78.32;99430.28;5045105;28;20033;-79
2022/04/11 07:42:30;;;;;;;9.20;3.20;;;;;;;9.28;77.42;99440.09;5067139;28;20036;-78
2022/04/11 07:44:56;;;;;;;10.15;4.13;;;;;;;9.38;76.42;99426.31;5038309;28;20151;-77
2022/04/11 07:47:21;;;;;;;7.18;2.55;;;;;;;9.31;77.09;99439.69;5068052;28;20039;-77
2022/04/11 07:49:47;;;;;;;10.65;2.63;;;;;;;9.13;77.96;99445.59;5038764;28;20033;-78
2022/04/11 07:52:13;;;;;;;6.35;1.95;;;;;;;8.99;78.88;99443.84;5050270;28;21382;-78
2022/04/11 07:54:41;;;;;;;9.80;3.17;;;;;;;8.89;79.30;99449.59;5038672;28;20036;-78
2022/04/11 07:57:08;;;;;;;8.20;3.17;;;;;;;8.78;80.13;99472.38;5077873;28;20043;-77
2022/04/11 07:59:34;;;;;;;11.18;2.95;;;;;;;8.64;80.45;99488.56;5046766;28;20033;-78
2022/04/11 08:02:00;;;;;;;8.35;2.88;;;;;;;8.67;80.27;99497.03;5050670;28;20055;-75
2022/04/11 08:04:25;;;;;;;13.65;3.63;;;;;;;8.67;80.37;99480.97;5056296;28;20036;-77
2022/04/11 08:06:51;;;;;;;8.82;2.63;;;;;;;8.59;80.42;99451.66;5060670;28;20036;-75
2022/04/11 08:09:17;;;;;;;7.65;2.92;;;;;;;8.71;80.22;99471.53;5069790;28;20080;-76
2022/04/11 08:11:43;;;;;;;9.30;3.42;;;;;;;8.76;80.07;99495.06;5035143;28;20031;-76
2022/04/11 08:14:08;;;;;;;9.48;3.00;;;;;;;8.74;80.58;99470.31;5035778;28;20043;-77
2022/04/11 08:16:34;;;;;;;10.07;3.45;;;;;;;8.71;80.05;99474.22;5043948;28;20089;-76
2022/04/11 08:18:59;;;;;;;8.20;3.55;;;;;;;8.73;79.95;99477.53;5031755;28;20085;-77
2022/04/11 08:21:25;;;;;;;12.20;4.05;;;;;;;8.67;80.88;99477.47;5051854;28;20036;-76
2022/04/11 08:23:51;;;;;;;8.57;3.60;;;;;;;8.71;80.52;99487.63;5055433;28;20051;-75
2022/04/11 08:26:16;;;;;;;7.32;3.33;;;;;;;8.66;80.48;99471.28;5060964;28;20097;-76
2022/04/11 08:28:42;;;;;;;6.15;3.22;;;;;;;8.67;80.85;99466.75;5054848;28;20037;-75
2022/04/11 08:31:08;;;;;;;9.10;3.33;;;;;;;8.68;80.69;99458.53;5039159;28;20043;-75
2022/04/11 08:33:33;;;;;;;8.48;3.92;;;;;;;8.73;81.16;99457.91;5063301;28;20059;-75
2022/04/11 08:35:59;;;;;;;10.13;3.65;;;;;;;8.66;81.27;99439.13;5058637;28;20382;-75
2022/04/11 08:38:25;;;;;;;8.95;4.40;;;;;;;8.61;81.80;99422.81;5044665;28;20382;-75
2022/04/11 08:40:52;;;;;;;9.80;3.85;;;;;;;8.61;82.04;99417.44;5055237;28;20036;-76
2022/04/11 08:43:22;;;;;;;11.20;4.55;;;;;;;8.69;82.14;99414.63;5065838;28;20035;-76
2022/04/11 08:45:48;;;;;;;9.98;3.92;;;;;;;8.71;81.45;99401.84;5056063;28;20039;-76
2022/04/11 08:48:14;;;;;;;11.93;3.92;;;;;;;8.79;81.56;99393.66;5049756;28;20021;-75
2022/04/11 08:50:40;;;;;;;7.40;3.70;;;;;;;8.84;81.18;99389.53;5053215;28;20036;-76
2022/04/11 08:53:05;;;;;;;13.75;4.28;;;;;;;8.89;81.11;99381.72;5041456;28;20365;-76
2022/04/11 08:55:31;;;;;;;8.85;3.83;;;;;;;8.88;80.52;99359.47;5041760;28;20044;-75
2022/04/11 08:57:58;;;;;;;12.88;4.07;;;;;;;9.25;79.26;99379.63;5038944;28;20025;-75
2022/04/11 09:00:23;;;;;;;9.60;3.78;;;;;;;9.31;78.92;99347.66;5071077;28;20040;-75
2022/04/11 09:02:49;;;;;;;11.60;4.43;;;;;;;9.66;77.03;99346.50;5052580;28;20108;-75
2022/04/11 09:05:20;;;;;;;11.63;3.67;;;;;;;9.74;77.50;99339.28;5064573;28;20033;-75
2022/04/11 09:07:54;;;;;;;13.00;4.40;;;;;;;9.68;77.68;99327.50;5065643;28;20029;-76
2022/04/11 09:10:22;;;;;;;10.20;4.50;;;;;;;9.69;78.71;99305.84;5057867;28;20482;-76
2022/04/11 09:12:49;;;;;;;13.02;5.88;;;;;;;9.55;80.43;99303.34;5073949;28;20066;-75
2022/04/11 09:15:19;;;;;;;9.85;4.65;;;;;;;9.23;83.71;99285.16;5071369;28;20028;-75
2022/04/11 09:17:46;;;;;;;9.10;4.78;;;;;;;8.86;89.09;99254.28;5036586;28;20557;-75
2022/04/11 09:20:25;;;;;;;14.93;5.15;;;;;;;8.54;93.85;99215.66;5056820;28;20024;-76
2022/04/11 09:22:51;;;;;;;13.35;4.78;;;;;;;8.37;97.99;99162.41;5073641;28;20028;-75
2022/04/11 09:25:22;;;;;;;12.45;5.30;;;;;;;7.95;100.00;99138.53;5040657;28;20029;-76
2022/04/11 09:27:49;;;;;;;3.78;2.85;;;;;;;7.76;100.00;99137.41;5069418;28;20029;-77
2022/04/11 09:30:27;;;;;;;7.20;3.40;;;;;;;7.90;100.00;99182.78;5070473;28;20373;-78
2022/04/11 09:32:59;;;;;;;5.20;2.38;;;;;;;7.96;100.00;99185.69;5070132;28;20103;-77
2022/04/11 09:35:27;;;;;;;6.30;2.90;;;;;;;8.03;100.00;99202.63;5071378;28;20142;-77
2022/04/11 09:38:06;;;;;;;7.75;4.07;;;;;;;8.15;100.00;99163.56;5067853;28;20119;-77
2022/04/11 09:40:55;;;;;;;4.47;2.60;;;;;;;8.17;100.00;99188.25;5054403;28;20036;-76
2022/04/11 09:43:26;;;;;;;4.80;3.03;;;;;;;8.08;100.00;99173.41;5054148;28;20047;-78
2022/04/11 09:45:52;;;;;;;6.97;3.38;;;;;;;8.22;100.00;99193.84;5063464;28;20036;-76
2022/04/11 09:48:21;;;;;;;4.93;2.92;;;;;;;8.40;100.00;99184.50;5074186;28;20033;-77
2022/04/11 09:50:47;;;;;;;7.43;4.32;;;;;;;8.70;100.00;99172.41;5085170;28;20214;-77
2022/04/11 09:53:19;;;;;;;7.68;3.85;;;;;;;8.76;100.00;99168.94;5056456;28;20024;-76
2022/04/11 09:55:47;;;;;;;1.30;1.10;;;;;;;9.15;100.00;99190.63;5065956;28;20038;-77
2022/04/11 09:58:13;;;;;;;3.33;1.85;;;;;;;9.32;100.00;99185.72;5053537;28;20034;-76
2022/04/11 10:00:43;;;;;;;0.90;0.90;;;;;;;9.18;100.00;99217.03;5068706;28;20158;-76
2022/04/11 10:03:09;;;;;;;4.82;2.17;;;;;;;8.88;100.00;99225.44;5049295;28;20033;-77
2022/04/11 10:05:35;;;;;;;9.73;2.90;;;;;;;8.70;100.00;99204.56;5037606;28;20055;-78
2022/04/11 10:08:06;;;;;;;1.52;1.42;;;;;;;8.66;100.00;99231.97;5063049;28;20037;-77
2022/04/11 10:10:34;;;;;;;4.93;1.52;;;;;;;8.66;100.00;99229.31;5062840;28;20120;-79
2022/04/11 10:13:01;;;;;;;1.13;1.00;;;;;;;8.66;100.00;99242.72;5068161;28;20029;-77
2022/04/11 10:15:27;;;;;;;0.40;0.40;;;;;;;8.75;100.00;99265.59;5065759;28;20514;-77
2022/04/11 10:17:54;;;;;;;0.40;0.40;;;;;;;8.72;100.00;99257.97;5047459;28;20497;-75
2022/04/11 10:20:30;;;;;;;0.40;0.40;;;;;;;8.93;100.00;99273.09;5053084;28;20028;-76
2022/04/11 10:22:57;;;;;;;0.43;0.43;;;;;;;9.05;100.00;99274.16;5051647;28;20068;-77
2022/04/11 10:25:23;;;;;;;0.40;0.40;;;;;;;9.13;100.00;99294.59;5068502;28;20478;-79
2022/04/11 10:28:28;;;;;;;0.40;0.40;;;;;;;9.29;100.00;99290.69;5037178;28;20539;-79
2022/04/11 10:31:10;;;;;;;0.40;0.40;;;;;;;9.41;100.00;99279.16;5055723;28;20032;-79
2022/04/11 10:33:48;;;;;;;0.50;0.50;;;;;;;9.77;100.00;99295.94;5050451;28;20032;-79
2022/04/11 10:36:31;;;;;;;0.60;0.60;;;;;;;9.91;100.00;99281.47;5029224;28;20036;-79
2022/04/11 10:39:12;;;;;;;2.55;1.60;;;;;;;9.94;100.00;99281.03;5060555;28;20187;-80
2022/04/11 10:41:56;;;;;;;0.40;0.40;;;;;;;9.84;100.00;99280.63;5078583;28;20033;-79
2022/04/11 10:44:32;;;;;;;4.82;2.30;;;;;;;9.78;100.00;99271.56;5059032;28;20075;-80
2022/04/11 10:47:12;;;;;;;2.55;1.75;;;;;;;9.77;100.00;99274.47;5068849;28;20078;-79
2022/04/11 10:49:50;;;;;;;0.50;0.50;;;;;;;9.76;100.00;99272.78;5060697;28;20484;-79
2022/04/11 10:52:35;;;;;;;2.47;1.25;;;;;;;9.67;100.00;99275.69;5069252;28;20047;-79
2022/04/11 10:55:07;;;;;;;1.63;1.35;;;;;;;9.68;100.00;99280.03;5066259;28;20071;-79
2022/04/11 10:57:35;;;;;;;3.42;0.93;;;;;;;9.61;100.00;99281.06;5034223;28;20085;-79
2022/04/11 11:00:02;;;;;;;0.65;0.65;;;;;;;9.45;100.00;99280.44;5044762;28;20136;-78
2022/04/11 11:02:48;;;;;;;0.77;0.60;;;;;;;9.30;100.00;99281.66;5068594;28;20086;-79
2022/04/11 11:05:30;;;;;;;0.50;0.50;;;;;;;9.44;100.00;99276.06;5046657;28;20039;-79
2022/04/11 11:08:14;;;;;;;0.82;0.82;;;;;;;9.75;100.00;99266.59;5048776;28;20090;-79
2022/04/11 11:10:44;;;;;;;4.43;2.47;;;;;;;10.49;100.00;99235.09;5059594;28;20040;-80
2022/04/11 11:13:35;;;;;;;1.05;1.00;;;;;;;11.57;97.86;99224.31;5051358;28;20059;-79
2022/04/11 11:16:07;;;;;;;1.00;0.93;;;;;;;11.18;99.22;99244.25;5051830;28;20036;-80
2022/04/11 11:18:48;;;;;;;2.47;1.67;;;;;;;10.72;100.00;99239.97;5059316;28;20028;-80
2022/04/11 11:21:14;;;;;;;7.50;2.00;;;;;;;10.52;100.00;99240.84;5064979;28;20034;-79
2022/04/11 11:23:40;;;;;;;1.48;1.38;;;;;;;10.48;100.00;99233.44;5048484;28;20037;-80
2022/04/11 11:26:13;;;;;;;5.00;1.92;;;;;;;10.26;100.00;99239.03;5063530;28;20035;-80
2022/04/11 11:28:42;;;;;;;4.45;2.20;;;;;;;9.98;100.00;99238.50;5070299;28;20319;-80
2022/04/11 11:31:08;;;;;;;7.93;3.08;;;;;;;9.68;100.00;99229.03;5052453;28;20486;-80
2022/04/11 11:33:34;;;;;;;12.18;4.35;;;;;;;9.72;100.00;99237.50;5067951;28;20067;-81
2022/04/11 11:36:02;;;;;;;10.75;3.33;;;;;;;9.85;100.00;99240.16;5077240;28;20039;-81
2022/04/11 11:38:31;;;;;;;10.35;3.90;;;;;;;9.77;100.00;99228.84;5045608;28;20043;-82